createdAt,value
2024-02-22T00:00:41.182Z,5725.2
2024-02-22T00:01:55.538Z,5724.9
2024-02-22T00:03:09.886Z,5724.5
2024-02-22T00:04:24.256Z,5724.7
2024-02-22T00:05:38.604Z,5724.8
2024-02-22T00:06:52.966Z,5724.4
2024-02-22T00:08:07.318Z,5724.1
2024-02-22T00:09:21.000Z,5724.2
2024-02-22T00:10:36.031Z,5724.1
2024-02-22T00:11:50.388Z,5723.4
2024-02-22T00:13:03.789Z,5723.6
2024-02-22T00:14:18.159Z,5723.7
2024-02-22T00:15:32.000Z,5723.2
2024-02-22T00:16:46.859Z,5723
2024-02-22T00:18:01.212Z,5722.7
2024-02-22T00:19:15.568Z,5722.3
2024-02-22T00:21:44.278Z,5722.3
2024-02-22T00:22:58.648Z,5722.2
2024-02-22T00:24:12.996Z,5721.5
2024-02-22T00:25:27.000Z,5721.2
2024-02-22T00:26:41.000Z,5721.3
2024-02-22T00:27:56.067Z,5721.1
2024-02-22T00:29:09.473Z,5720.8
2024-02-22T00:30:23.839Z,5720.7
2024-02-22T00:32:52.547Z,5720.5
2024-02-22T00:34:06.894Z,5720.4
2024-02-22T00:35:21.255Z,5720.7
2024-02-22T00:36:35.614Z,5720.2
2024-02-22T00:37:50.000Z,5720.1
2024-02-22T00:39:04.322Z,5720
2024-02-22T00:40:18.675Z,5719.8
2024-02-22T00:41:33.034Z,5719.5
2024-02-22T00:42:47.000Z,5719.2
2024-02-22T00:44:01.740Z,5718.9
2024-02-22T00:45:15.167Z,5718.7
2024-02-22T00:46:29.524Z,5718.4
2024-02-22T00:47:43.862Z,5718.4
2024-02-22T00:48:58.000Z,5717.9
2024-02-22T00:50:12.574Z,5718
2024-02-22T00:51:26.938Z,5718
2024-02-22T00:52:41.000Z,5717.9
2024-02-22T00:53:55.648Z,5717.5
2024-02-22T00:55:10.008Z,5717.3
2024-02-22T00:56:24.369Z,5716.9
2024-02-22T00:57:38.714Z,5716.8
2024-02-22T00:58:53.075Z,5716.6
2024-02-22T01:00:07.000Z,5716.2
2024-02-22T01:01:20.843Z,5716.1
2024-02-22T01:02:35.204Z,5715.7
2024-02-22T01:03:49.000Z,5715.8
2024-02-22T01:05:03.909Z,5715.6
2024-02-22T01:06:18.274Z,5715.3
2024-02-22T01:07:32.614Z,5715.2
2024-02-22T01:08:46.974Z,5714.8
2024-02-22T01:10:01.332Z,5714.7
2024-02-22T01:11:15.000Z,5714.5
2024-02-22T01:12:30.051Z,5714.2
2024-02-22T01:13:44.398Z,5713.9
2024-02-22T01:14:58.000Z,5713.6
2024-02-22T01:16:13.000Z,5713.3
2024-02-22T01:17:26.522Z,5713.3
2024-02-22T01:18:40.883Z,5712.9
2024-02-22T01:19:55.247Z,5712.7
2024-02-22T01:21:09.590Z,5712.6
2024-02-22T01:22:24.000Z,5712.3
2024-02-22T01:23:38.299Z,5712.3
2024-02-22T01:24:52.671Z,5711.9
2024-02-22T01:26:07.015Z,5711.7
2024-02-22T01:27:21.000Z,5711.4
2024-02-22T01:28:35.726Z,5711.1
2024-02-22T01:29:50.086Z,5710.9
2024-02-22T01:31:04.436Z,5710.9
2024-02-22T01:32:18.801Z,5710.9
2024-02-22T01:33:32.000Z,5710.3
2024-02-22T01:34:46.565Z,5710.4
2024-02-22T01:36:00.919Z,5710.2
2024-02-22T01:37:15.000Z,5709.9
2024-02-22T01:38:29.624Z,5709.9
2024-02-22T01:39:43.990Z,5709.9
2024-02-22T01:40:58.354Z,5709.8
2024-02-22T01:42:12.698Z,5709.6
2024-02-22T01:43:27.051Z,5709.5
2024-02-22T01:44:41.000Z,5709.1
2024-02-22T01:45:55.762Z,5708.8
2024-02-22T01:47:10.122Z,5708.4
2024-02-22T01:48:24.000Z,5708.5
2024-02-22T01:49:37.897Z,5708.4
2024-02-22T01:50:52.244Z,5708
2024-02-22T01:52:06.600Z,5707.7
2024-02-22T01:53:20.000Z,5707.6
2024-02-22T01:54:35.323Z,5707.3
2024-02-22T01:55:49.663Z,5707.1
2024-02-22T01:57:04.018Z,5707.1
2024-02-22T01:58:18.375Z,5706.8
2024-02-22T01:59:32.747Z,5706.4
2024-02-22T02:00:47.092Z,5706.2
2024-02-22T02:02:01.455Z,5706.1
2024-02-22T02:03:15.802Z,5705.8
2024-02-22T02:04:30.156Z,5705.7
2024-02-22T02:05:43.575Z,5705.7
2024-02-22T02:06:57.935Z,5705.3
2024-02-22T02:08:12.295Z,5705.2
2024-02-22T02:09:26.634Z,5705.1
2024-02-22T02:10:40.999Z,5704.9
2024-02-22T02:11:55.346Z,5704.5
2024-02-22T02:13:09.710Z,5704.4
2024-02-22T02:14:24.062Z,5704.4
2024-02-22T02:15:38.419Z,5704.2
2024-02-22T02:16:52.785Z,5704.2
2024-02-22T02:18:07.000Z,5704.1
2024-02-22T02:19:21.497Z,5704
2024-02-22T02:20:35.845Z,5704
2024-02-22T02:21:49.268Z,5703.8
2024-02-22T02:23:03.610Z,5703.8
2024-02-22T02:24:17.967Z,5703.5
2024-02-22T02:25:32.325Z,5703.3
2024-02-22T02:26:46.687Z,5703.3
2024-02-22T02:28:01.050Z,5703
2024-02-22T02:29:15.000Z,5702.8
2024-02-22T02:30:29.760Z,5702.5
2024-02-22T02:31:44.105Z,5702.4
2024-02-22T02:32:58.465Z,5702.4
2024-02-22T02:34:12.000Z,5702
2024-02-22T02:35:27.180Z,5701.9
2024-02-22T02:36:41.522Z,5701.6
2024-02-22T02:37:54.944Z,5701.3
2024-02-22T02:39:09.292Z,5701.1
2024-02-22T02:40:23.653Z,5701
2024-02-22T02:41:38.016Z,5700.9
2024-02-22T02:42:52.368Z,5700.6
2024-02-22T02:44:06.719Z,5700.3
2024-02-22T02:45:21.000Z,5700.2
2024-02-22T02:46:35.437Z,5700.2
2024-02-22T02:47:49.795Z,5700.1
2024-02-22T02:49:04.156Z,5699.7
2024-02-22T02:50:18.494Z,5699.4
2024-02-22T02:51:32.000Z,5699.2
2024-02-22T02:52:47.206Z,5699.2
2024-02-22T02:54:00.635Z,5698.9
2024-02-22T02:55:14.975Z,5698.7
2024-02-22T02:56:29.330Z,5698.4
2024-02-22T02:57:43.686Z,5698.4
2024-02-22T02:58:58.045Z,5698.3
2024-02-22T03:00:12.411Z,5698.5
2024-02-22T03:01:26.762Z,5698.2
2024-02-22T03:02:41.112Z,5698.2
2024-02-22T03:03:55.466Z,5698
2024-02-22T03:05:09.837Z,5697.7
2024-02-22T03:06:24.179Z,5697.6
2024-02-22T03:07:38.547Z,5697.4
2024-02-22T03:08:52.887Z,5697.5
2024-02-22T03:10:06.308Z,5697.3
2024-02-22T03:11:20.658Z,5697.1
2024-02-22T03:12:35.011Z,5696.8
2024-02-22T03:13:49.370Z,5696.5
2024-02-22T03:15:03.000Z,5696.3
2024-02-22T03:16:18.088Z,5696.6
2024-02-22T03:17:32.434Z,5696.5
2024-02-22T03:18:46.000Z,5696.3
2024-02-22T03:20:01.150Z,5696.3
2024-02-22T03:21:15.515Z,5696.1
2024-02-22T03:22:29.000Z,5696
2024-02-22T03:23:44.230Z,5695.9
2024-02-22T03:24:58.000Z,5696.1
2024-02-22T03:26:11.983Z,5695.9
2024-02-22T03:27:26.342Z,5695.9
2024-02-22T03:28:40.697Z,5695.6
2024-02-22T03:29:55.000Z,5695.3
2024-02-22T03:31:09.403Z,5695.3
2024-02-22T03:32:23.758Z,5695.2
2024-02-22T03:33:38.130Z,5695
2024-02-22T03:34:52.485Z,5694.8
2024-02-22T03:36:06.000Z,5694.7
2024-02-22T03:37:21.188Z,5694.7
2024-02-22T03:38:35.546Z,5694.8
2024-02-22T03:39:49.906Z,5694.6
2024-02-22T03:41:04.000Z,5694.5
2024-02-22T03:42:17.675Z,5694.2
2024-02-22T03:43:32.030Z,5694.2
2024-02-22T03:44:46.382Z,5694.1
2024-02-22T03:46:00.739Z,5694
2024-02-22T03:47:15.000Z,5693.8
2024-02-22T03:48:29.453Z,5693.7
2024-02-22T03:49:43.809Z,5693.6
2024-02-22T03:50:58.151Z,5693.8
2024-02-22T03:52:12.000Z,5693.7
2024-02-22T03:53:26.870Z,5693.7
2024-02-22T03:54:41.218Z,5693.7
2024-02-22T03:55:55.000Z,5693.3
2024-02-22T03:57:09.928Z,5693.2
2024-02-22T03:58:23.347Z,5693.2
2024-02-22T03:59:37.717Z,5693
2024-02-22T04:00:52.058Z,5692.9
2024-02-22T04:02:06.416Z,5692.8
2024-02-22T04:03:20.000Z,5692.8
2024-02-22T04:04:35.121Z,5692.6
2024-02-22T04:05:48.539Z,5692.4
2024-02-22T04:07:02.896Z,5692.3
2024-02-22T04:08:17.249Z,5692.1
2024-02-22T04:09:31.615Z,5692.1
2024-02-22T04:10:45.975Z,5692.1
2024-02-22T04:12:00.314Z,5691.9
2024-02-22T04:13:14.671Z,5691.6
2024-02-22T04:14:29.000Z,5691.3
2024-02-22T04:15:43.395Z,5691.1
2024-02-22T04:16:57.743Z,5691.3
2024-02-22T04:18:12.096Z,5691.4
2024-02-22T04:19:26.454Z,5691.5
2024-02-22T04:20:40.000Z,5691.4
2024-02-22T04:21:54.000Z,5691.3
2024-02-22T04:23:08.587Z,5691.1
2024-02-22T04:24:22.939Z,5691.1
2024-02-22T04:25:37.000Z,5691
2024-02-22T04:26:51.652Z,5691.2
2024-02-22T04:28:06.004Z,5691.1
2024-02-22T04:29:20.360Z,5691.1
2024-02-22T04:30:34.720Z,5691
2024-02-22T04:31:49.078Z,5690.8
2024-02-22T04:33:03.435Z,5690.7
2024-02-22T04:34:17.786Z,5690.3
2024-02-22T04:35:32.143Z,5690.3
2024-02-22T04:36:46.000Z,5690.1
2024-02-22T04:38:00.851Z,5690.1
2024-02-22T04:39:15.198Z,5690
2024-02-22T04:40:28.610Z,5690
2024-02-22T04:41:42.965Z,5689.9
2024-02-22T04:42:57.331Z,5689.8
2024-02-22T04:44:11.685Z,5689.7
2024-02-22T04:45:26.042Z,5689.8
2024-02-22T04:46:40.401Z,5689.8
2024-02-22T04:47:54.000Z,5689.8
2024-02-22T04:49:09.112Z,5689.8
2024-02-22T04:50:23.000Z,5689.6
2024-02-22T04:51:37.826Z,5689.2
2024-02-22T04:52:52.175Z,5689.1
2024-02-22T04:54:06.524Z,5688.9
2024-02-22T04:55:20.880Z,5688.9
2024-02-22T04:56:34.304Z,5688.8
2024-02-22T04:57:48.656Z,5688.8
2024-02-22T04:59:03.000Z,5688.5
2024-02-22T05:00:17.367Z,5688.5
2024-02-22T05:01:31.724Z,5688.3
2024-02-22T05:02:46.071Z,5688.3
2024-02-22T05:04:00.427Z,5688.1
2024-02-22T05:05:14.784Z,5688.2
2024-02-22T05:06:29.141Z,5688
2024-02-22T05:07:43.497Z,5688
2024-02-22T05:08:57.852Z,5687.8
2024-02-22T05:10:12.000Z,5687.6
2024-02-22T05:11:26.573Z,5687.5
2024-02-22T05:12:39.993Z,5687.4
2024-02-22T05:13:54.349Z,5687.5
2024-02-22T05:15:08.704Z,5687.4
2024-02-22T05:16:23.000Z,5687.3
2024-02-22T05:17:37.401Z,5687
2024-02-22T05:18:51.760Z,5686.8
2024-02-22T05:20:06.000Z,5686.6
2024-02-22T05:21:20.000Z,5686.7
2024-02-22T05:22:34.837Z,5686.6
2024-02-22T05:23:49.189Z,5686.6
2024-02-22T05:25:03.547Z,5686.3
2024-02-22T05:26:18.000Z,5686.3
2024-02-22T05:27:32.000Z,5686.3
2024-02-22T05:28:45.669Z,5686.4
2024-02-22T05:30:00.023Z,5686.3
2024-02-22T05:31:14.383Z,5686.3
2024-02-22T05:32:28.738Z,5686.3
2024-02-22T05:33:43.092Z,5686
2024-02-22T05:34:57.437Z,5685.6
2024-02-22T05:36:11.000Z,5685.5
2024-02-22T05:37:26.147Z,5685.5
2024-02-22T05:38:40.000Z,5685.3
2024-02-22T05:39:54.865Z,5685.2
2024-02-22T05:41:09.000Z,5685.6
2024-02-22T05:42:23.581Z,5685.4
2024-02-22T05:43:38.000Z,5685.5
2024-02-22T05:44:51.347Z,5685.4
2024-02-22T05:46:05.709Z,5685.5
2024-02-22T05:47:20.049Z,5685.4
2024-02-22T05:48:34.412Z,5685.6
2024-02-22T05:49:48.000Z,5685.2
2024-02-22T05:51:03.130Z,5685
2024-02-22T05:52:17.487Z,5684.7
2024-02-22T05:53:31.842Z,5684.5
2024-02-22T05:54:46.190Z,5684.4
2024-02-22T05:56:00.549Z,5684.3
2024-02-22T05:57:14.913Z,5684.4
2024-02-22T05:58:29.264Z,5684.5
2024-02-22T05:59:43.621Z,5684.4
2024-02-22T06:00:57.000Z,5684.1
2024-02-22T06:02:11.392Z,5684.1
2024-02-22T06:03:25.743Z,5684.1
2024-02-22T06:04:40.100Z,5684
2024-02-22T06:05:54.000Z,5684.2
2024-02-22T06:07:08.796Z,5683.9
2024-02-22T06:08:23.165Z,5683.9
2024-02-22T06:09:37.512Z,5683.9
2024-02-22T06:10:51.000Z,5684
2024-02-22T06:12:06.000Z,5683.9
2024-02-22T06:13:20.578Z,5683.9
2024-02-22T06:14:34.947Z,5683.7
2024-02-22T06:15:49.301Z,5683.7
2024-02-22T06:17:02.000Z,5683.3
2024-02-22T06:18:17.060Z,5683
2024-02-22T06:19:31.414Z,5682.9
2024-02-22T06:20:45.770Z,5682.7
2024-02-22T06:22:00.121Z,5682.7
2024-02-22T06:23:14.000Z,5682.8
2024-02-22T06:24:28.840Z,5682.8
2024-02-22T06:25:43.136Z,5682.7
2024-02-22T06:26:57.491Z,5682.6
2024-02-22T06:28:11.000Z,5682.1
2024-02-22T06:29:26.212Z,5682
2024-02-22T06:30:40.575Z,5682
2024-02-22T06:31:54.928Z,5682
2024-02-22T06:33:08.288Z,5682
2024-02-22T06:34:22.000Z,5681.9
2024-02-22T06:35:36.889Z,5681.7
2024-02-22T06:36:51.191Z,5681.8
2024-02-22T06:38:05.502Z,5681.6
2024-02-22T06:39:19.806Z,5682
2024-02-22T06:40:34.154Z,5681.7
2024-02-22T06:41:48.510Z,5681.2
2024-02-22T06:43:02.866Z,5681.1
2024-02-22T06:44:17.174Z,5681
2024-02-22T06:45:31.000Z,5681
2024-02-22T06:46:45.000Z,5680.7
2024-02-22T06:48:00.147Z,5680.8
2024-02-22T06:49:13.571Z,5680.6
2024-02-22T06:50:27.000Z,5680.6
2024-02-22T06:51:42.181Z,5680.5
2024-02-22T06:52:56.490Z,5680.3
2024-02-22T06:54:10.802Z,5680.3
2024-02-22T06:55:25.093Z,5680.1
2024-02-22T06:57:53.000Z,5679.9
2024-02-22T06:59:07.994Z,5680
2024-02-22T07:00:22.000Z,5680
2024-02-22T07:01:36.000Z,5680.1
2024-02-22T07:02:50.904Z,5680.1
2024-02-22T07:05:19.515Z,5680
2024-02-22T07:06:32.864Z,5680
2024-02-22T07:09:01.467Z,5679.9
2024-02-22T07:10:14.855Z,5680
2024-02-22T07:11:28.200Z,5680.2
2024-02-22T07:12:42.000Z,5680.2
2024-02-22T07:13:56.817Z,5680.1
2024-02-22T07:15:11.000Z,5680.2
2024-02-22T07:16:25.418Z,5680.1
2024-02-22T07:17:39.718Z,5680
2024-02-22T07:18:54.000Z,5680
2024-02-22T07:20:08.000Z,5680.1
2024-02-22T07:21:22.611Z,5680
2024-02-22T07:22:36.000Z,5679.8
2024-02-22T07:23:49.000Z,5679.9
2024-02-22T07:25:03.657Z,5679.8
2024-02-22T07:26:17.952Z,5679.9
2024-02-22T07:27:32.249Z,5679.8
2024-02-22T07:28:46.551Z,5679.8
2024-02-22T07:30:00.000Z,5679.7
2024-02-22T07:31:15.167Z,5679.6
2024-02-22T07:32:29.457Z,5679.4
2024-02-22T07:33:43.770Z,5679.2
2024-02-22T07:36:12.367Z,5678.7
2024-02-22T07:37:26.666Z,5678.7
2024-02-22T07:38:40.979Z,5678.6
2024-02-22T07:39:54.337Z,5678.4
2024-02-22T07:41:08.000Z,5678.4
2024-02-22T07:42:22.940Z,5678.5
2024-02-22T07:43:37.229Z,5678.7
2024-02-22T07:44:51.542Z,5678.9
2024-02-22T07:46:05.000Z,5679.1
2024-02-22T07:47:20.137Z,5679.2
2024-02-22T07:48:34.451Z,5679.3
2024-02-22T07:49:48.744Z,5679.3
2024-02-22T07:51:03.047Z,5679.3
2024-02-22T07:52:17.000Z,5679.3
2024-02-22T07:53:31.000Z,5679.2
2024-02-22T07:54:45.956Z,5679
2024-02-22T07:55:59.323Z,5678.8
2024-02-22T07:57:13.000Z,5678.4
2024-02-22T07:58:27.921Z,5678.1
2024-02-22T07:59:42.210Z,5677.9
2024-02-22T08:00:56.511Z,5677.9
2024-02-22T08:02:10.815Z,5677.7
2024-02-22T08:03:25.133Z,5677.5
2024-02-22T08:04:39.418Z,5677.6
2024-02-22T08:05:53.738Z,5677.7
2024-02-22T08:07:08.020Z,5677.5
2024-02-22T08:08:22.000Z,5677.5
2024-02-22T08:09:36.642Z,5677.3
2024-02-22T08:10:50.944Z,5677.2
2024-02-22T08:12:04.289Z,5677.5
2024-02-22T08:13:18.601Z,5677.7
2024-02-22T08:14:33.000Z,5677.8
2024-02-22T08:15:46.260Z,5677.8
2024-02-22T08:17:00.562Z,5677.8
2024-02-22T08:18:14.861Z,5677.8
2024-02-22T08:19:29.000Z,5677.8
2024-02-22T08:20:43.462Z,5677.5
2024-02-22T08:21:57.000Z,5677.4
2024-02-22T08:23:12.068Z,5677.1
2024-02-22T08:24:26.366Z,5677
2024-02-22T08:25:40.000Z,5676.6
2024-02-22T08:26:54.982Z,5676.4
2024-02-22T08:28:09.286Z,5676.4
2024-02-22T08:29:23.583Z,5676.3
2024-02-22T08:30:37.000Z,5676.5
2024-02-22T08:31:51.243Z,5676.5
2024-02-22T08:33:05.540Z,5676.5
2024-02-22T08:34:19.834Z,5676.4
2024-02-22T08:35:34.149Z,5676.5
2024-02-22T08:36:48.000Z,5676
2024-02-22T08:38:02.752Z,5675.8
2024-02-22T08:39:17.045Z,5675.4
2024-02-22T08:40:31.347Z,5674.8
2024-02-22T08:42:59.963Z,5674
2024-02-22T08:44:14.253Z,5673.4
2024-02-22T08:45:28.000Z,5673.2
2024-02-22T08:46:42.869Z,5673.1
2024-02-22T08:49:10.526Z,5672.5
2024-02-22T08:50:24.826Z,5672.4
2024-02-22T08:51:39.125Z,5672.3
2024-02-22T08:52:53.000Z,5672.4
2024-02-22T08:54:07.732Z,5672.1
2024-02-22T08:55:22.029Z,5672.3
2024-02-22T08:56:36.329Z,5672.1
2024-02-22T08:57:50.627Z,5671.8
2024-02-22T08:59:05.000Z,5671.6
2024-02-22T09:00:19.245Z,5671.2
2024-02-22T09:01:33.545Z,5671.1
2024-02-22T09:02:47.835Z,5671.2
2024-02-22T09:04:01.000Z,5671.2
2024-02-22T09:05:15.511Z,5671.1
2024-02-22T09:06:29.000Z,5671.2
2024-02-22T09:07:44.108Z,5671.2
2024-02-22T09:08:58.407Z,5671.1
2024-02-22T09:10:12.705Z,5670.7
2024-02-22T09:11:27.006Z,5670.4
2024-02-22T09:12:41.320Z,5670.2
2024-02-22T09:13:55.620Z,5670
2024-02-22T09:16:24.211Z,5670.2
2024-02-22T09:17:38.524Z,5669.9
2024-02-22T09:18:52.831Z,5669.8
2024-02-22T09:20:06.177Z,5669.4
2024-02-22T09:22:34.779Z,5669.9
2024-02-22T09:23:49.090Z,5669.9
2024-02-22T09:25:03.386Z,5670.1
2024-02-22T09:26:17.000Z,5670
2024-02-22T09:27:32.004Z,5669.7
2024-02-22T09:28:46.305Z,5669.8
2024-02-22T09:30:00.601Z,5670.1
2024-02-22T09:31:14.889Z,5670.1
2024-02-22T09:32:29.206Z,5670.1
2024-02-22T09:33:43.499Z,5670.3
2024-02-22T09:34:57.813Z,5670.5
2024-02-22T09:36:11.161Z,5670.5
2024-02-22T09:37:25.000Z,5670.1
2024-02-22T09:38:39.758Z,5669.9
2024-02-22T09:39:54.054Z,5669.5
2024-02-22T09:41:08.366Z,5669.1
2024-02-22T09:42:22.664Z,5669.2
2024-02-22T09:43:37.000Z,5669.3
2024-02-22T09:44:51.257Z,5669.1
2024-02-22T09:46:05.578Z,5669.1
2024-02-22T09:47:19.000Z,5669
2024-02-22T09:48:34.000Z,5668.9
2024-02-22T09:49:48.474Z,5668.9
2024-02-22T09:51:02.781Z,5668.7
2024-02-22T09:52:16.125Z,5668.3
2024-02-22T09:53:30.000Z,5668.2
2024-02-22T09:54:44.000Z,5667.9
2024-02-22T09:55:59.000Z,5668
2024-02-22T09:57:13.337Z,5667.4
2024-02-22T09:58:27.634Z,5667.1
2024-02-22T09:59:42.000Z,5667
2024-02-22T10:00:56.251Z,5666.7
2024-02-22T10:02:10.550Z,5666.5
2024-02-22T10:03:24.845Z,5666.5
2024-02-22T10:04:39.145Z,5666.8
2024-02-22T10:05:53.000Z,5666.2
2024-02-22T10:07:07.750Z,5665.9
2024-02-22T10:08:21.121Z,5665.8
2024-02-22T10:09:35.424Z,5665.6
2024-02-22T10:10:49.000Z,5665.8
2024-02-22T10:12:04.028Z,5665.7
2024-02-22T10:13:18.316Z,5665.3
2024-02-22T10:14:32.635Z,5665.4
2024-02-22T10:15:46.932Z,5665
2024-02-22T10:17:01.000Z,5664.7
2024-02-22T10:18:15.532Z,5664.5
2024-02-22T10:19:29.828Z,5664.8
2024-02-22T10:20:44.130Z,5665.3
2024-02-22T10:21:58.000Z,5665.1
2024-02-22T10:23:12.740Z,5665.2
2024-02-22T10:24:26.000Z,5664.7
2024-02-22T10:25:40.398Z,5664.6
2024-02-22T10:26:54.000Z,5664.4
2024-02-22T10:28:09.000Z,5664.3
2024-02-22T10:29:23.295Z,5664.3
2024-02-22T10:30:37.597Z,5663.8
2024-02-22T10:31:51.916Z,5663.3
2024-02-22T10:33:06.208Z,5662.7
2024-02-22T10:34:20.514Z,5662.5
2024-02-22T10:35:34.819Z,5662.1
2024-02-22T10:36:49.119Z,5661.8
2024-02-22T10:38:03.418Z,5661.2
2024-02-22T10:39:17.709Z,5660.9
2024-02-22T10:40:31.079Z,5660.6
2024-02-22T10:41:45.372Z,5660.7
2024-02-22T10:42:59.671Z,5660.7
2024-02-22T10:44:14.000Z,5660.3
2024-02-22T10:45:28.279Z,5660.3
2024-02-22T10:46:42.595Z,5660.5
2024-02-22T10:47:56.893Z,5660.6
2024-02-22T10:49:11.194Z,5661
2024-02-22T10:50:25.000Z,5661.5
2024-02-22T10:51:39.789Z,5661.9
2024-02-22T10:52:54.085Z,5662
2024-02-22T10:54:08.000Z,5661.4
2024-02-22T10:56:37.009Z,5660.7
2024-02-22T10:57:50.000Z,5660.4
2024-02-22T10:59:04.663Z,5659.7
2024-02-22T11:00:18.967Z,5659.7
2024-02-22T11:01:33.000Z,5659.5
2024-02-22T11:02:47.561Z,5659.7
2024-02-22T11:04:01.877Z,5659.9
2024-02-22T11:05:16.161Z,5659.4
2024-02-22T11:06:30.000Z,5658.4
2024-02-22T11:07:44.772Z,5658.2
2024-02-22T11:08:59.000Z,5657.3
2024-02-22T11:10:13.374Z,5656.7
2024-02-22T11:11:27.674Z,5656
2024-02-22T11:13:56.000Z,5655.1
2024-02-22T11:15:09.643Z,5655.4
2024-02-22T11:16:24.000Z,5655.6
2024-02-22T11:17:38.000Z,5655.4
2024-02-22T11:18:52.554Z,5654.6
2024-02-22T11:20:06.000Z,5654.2
2024-02-22T11:21:21.143Z,5653.4
2024-02-22T11:22:35.000Z,5653.2
2024-02-22T11:25:04.000Z,5652.8
2024-02-22T11:26:18.349Z,5652.6
2024-02-22T11:27:32.655Z,5652.1
2024-02-22T11:28:47.000Z,5652
2024-02-22T11:30:01.264Z,5651.6
2024-02-22T11:31:14.636Z,5651.4
2024-02-22T11:32:28.934Z,5651.4
2024-02-22T11:33:43.237Z,5651.4
2024-02-22T11:34:57.000Z,5651.3
2024-02-22T11:36:11.847Z,5650.8
2024-02-22T11:37:26.153Z,5650.2
2024-02-22T11:38:40.454Z,5649.5
2024-02-22T11:39:54.000Z,5649.4
2024-02-22T11:41:09.052Z,5649.2
2024-02-22T11:42:23.357Z,5648.8
2024-02-22T11:43:37.000Z,5648.7
2024-02-22T11:44:51.953Z,5648.4
2024-02-22T11:46:06.000Z,5648
2024-02-22T11:47:19.615Z,5647.7
2024-02-22T11:48:33.925Z,5647.4
2024-02-22T11:49:48.233Z,5647.4
2024-02-22T11:51:02.524Z,5647.1
2024-02-22T11:52:16.837Z,5647
2024-02-22T11:53:31.121Z,5647
2024-02-22T11:54:45.427Z,5646.6
2024-02-22T11:55:59.739Z,5646.5
2024-02-22T11:57:14.000Z,5646.3
2024-02-22T11:58:28.330Z,5645.9
2024-02-22T11:59:42.643Z,5645.6
2024-02-22T12:00:57.000Z,5645.5
2024-02-22T12:02:11.000Z,5645.3
2024-02-22T12:03:24.624Z,5645
2024-02-22T12:04:38.923Z,5644.7
2024-02-22T12:05:53.228Z,5644.3
2024-02-22T12:07:07.525Z,5644
2024-02-22T12:08:21.000Z,5643.4
2024-02-22T12:09:36.124Z,5643.3
2024-02-22T12:10:50.435Z,5643.1
2024-02-22T12:12:04.737Z,5643.2
2024-02-22T12:13:19.000Z,5643.1
2024-02-22T12:14:33.329Z,5642.8
2024-02-22T12:15:47.633Z,5642.7
2024-02-22T12:17:01.924Z,5641.9
2024-02-22T12:18:16.226Z,5642.1
2024-02-22T12:20:43.896Z,5641.5
2024-02-22T12:21:58.197Z,5641.9
2024-02-22T12:23:12.494Z,5642.1
2024-02-22T12:24:25.857Z,5642.2
2024-02-22T12:25:40.164Z,5642.3
2024-02-22T12:26:54.461Z,5642
2024-02-22T12:28:08.760Z,5642
2024-02-22T12:29:23.066Z,5641.9
2024-02-22T12:30:37.365Z,5641.8
2024-02-22T12:31:51.669Z,5641.8
2024-02-22T12:33:05.973Z,5642
2024-02-22T12:34:20.265Z,5641.9
2024-02-22T12:35:34.000Z,5642.2
2024-02-22T12:36:48.878Z,5641.9
2024-02-22T12:38:03.173Z,5641.7
2024-02-22T12:39:17.473Z,5641.2
2024-02-22T12:40:30.847Z,5641.5
2024-02-22T12:41:45.146Z,5640.9
2024-02-22T12:42:59.447Z,5640.6
2024-02-22T12:44:13.737Z,5640.3
2024-02-22T12:45:28.048Z,5639.6
2024-02-22T12:46:42.000Z,5639.9
2024-02-22T12:47:56.657Z,5639.8
2024-02-22T12:49:10.944Z,5639.1
2024-02-22T12:50:25.246Z,5638.9
2024-02-22T12:51:39.548Z,5638.7
2024-02-22T12:54:08.000Z,5638.4
2024-02-22T12:55:22.457Z,5638.6
2024-02-22T12:56:35.000Z,5638.4
2024-02-22T12:57:50.122Z,5637.7
2024-02-22T12:59:04.420Z,5637.1
2024-02-22T13:00:18.747Z,5636.5
2024-02-22T13:01:33.029Z,5635.7
2024-02-22T13:02:47.345Z,5635.3
2024-02-22T13:04:01.000Z,5635
2024-02-22T13:05:15.945Z,5635
2024-02-22T13:06:30.251Z,5635.2
2024-02-22T13:07:44.555Z,5635.4
2024-02-22T13:08:58.000Z,5635.4
2024-02-22T13:10:13.161Z,5635.1
2024-02-22T13:11:27.461Z,5634.7
2024-02-22T13:12:40.810Z,5634.6
2024-02-22T13:13:55.111Z,5634.2
2024-02-22T13:15:09.000Z,5633.8
2024-02-22T13:16:23.710Z,5633.5
2024-02-22T13:17:38.016Z,5633.1
2024-02-22T13:18:52.322Z,5632.9
2024-02-22T13:20:06.617Z,5632.7
2024-02-22T13:21:20.920Z,5631.8
2024-02-22T13:22:35.236Z,5631.5
2024-02-22T13:23:49.530Z,5630.8
2024-02-22T13:25:03.833Z,5630.4
2024-02-22T13:26:18.000Z,5630.2
2024-02-22T13:27:32.434Z,5629.8
2024-02-22T13:28:45.786Z,5629.3
2024-02-22T13:30:00.000Z,5628.8
2024-02-22T13:31:14.000Z,5628.1
2024-02-22T13:32:28.705Z,5628.1
2024-02-22T13:33:43.006Z,5628.1
2024-02-22T13:34:57.304Z,5627.8
2024-02-22T13:36:11.602Z,5627.5
2024-02-22T13:37:26.000Z,5627.1
2024-02-22T13:38:40.205Z,5626.7
2024-02-22T13:39:54.502Z,5626.3
2024-02-22T13:41:08.803Z,5626.2
2024-02-22T13:42:23.000Z,5626
2024-02-22T13:43:37.420Z,5625.6
2024-02-22T13:44:50.780Z,5625.4
2024-02-22T13:46:05.075Z,5625.1
2024-02-22T13:47:19.374Z,5625
2024-02-22T13:48:33.000Z,5624.8
2024-02-22T13:49:48.000Z,5624.3
2024-02-22T13:51:02.276Z,5624
2024-02-22T13:52:16.593Z,5623.8
2024-02-22T13:53:30.883Z,5623.4
2024-02-22T13:54:45.184Z,5623
2024-02-22T13:55:59.492Z,5622.8
2024-02-22T13:57:13.796Z,5622.6
2024-02-22T13:58:28.099Z,5622.7
2024-02-22T13:59:42.000Z,5622.1
2024-02-22T14:00:55.746Z,5621.8
2024-02-22T14:02:10.060Z,5621.3
2024-02-22T14:03:24.360Z,5621.2
2024-02-22T14:04:38.000Z,5620.6
2024-02-22T14:05:52.963Z,5620.1
2024-02-22T14:07:07.264Z,5619.9
2024-02-22T14:08:21.559Z,5619.1
2024-02-22T14:09:35.861Z,5618.7
2024-02-22T14:10:50.000Z,5618.1
2024-02-22T14:12:04.478Z,5617.2
2024-02-22T14:13:18.774Z,5616.7
2024-02-22T14:14:33.069Z,5616.3
2024-02-22T14:15:47.000Z,5616.1
2024-02-22T14:17:00.730Z,5615
2024-02-22T14:18:15.046Z,5615.5
2024-02-22T14:19:29.336Z,5614.8
2024-02-22T14:20:43.634Z,5614.3
2024-02-22T14:21:58.000Z,5613.5
2024-02-22T14:23:12.252Z,5612.9
2024-02-22T14:24:26.000Z,5612.7
2024-02-22T14:25:40.853Z,5612.6
2024-02-22T14:28:09.451Z,5612.6
2024-02-22T14:29:23.754Z,5611.9
2024-02-22T14:30:38.065Z,5611.6
2024-02-22T14:31:52.356Z,5610.9
2024-02-22T14:33:05.000Z,5610.2
2024-02-22T14:34:20.012Z,5609.6
2024-02-22T14:35:34.311Z,5608.6
2024-02-22T14:36:48.618Z,5608.1
2024-02-22T14:38:03.000Z,5608.4
2024-02-22T14:39:17.229Z,5607.9
2024-02-22T14:40:31.533Z,5607.4
2024-02-22T14:41:45.839Z,5607.4
2024-02-22T14:43:00.121Z,5606.9
2024-02-22T14:44:14.000Z,5606.4
2024-02-22T14:45:28.741Z,5605.8
2024-02-22T14:46:43.044Z,5605
2024-02-22T14:47:57.000Z,5604.8
2024-02-22T14:49:10.690Z,5604.2
2024-02-22T14:50:24.993Z,5603.8
2024-02-22T14:51:39.293Z,5603.1
2024-02-22T14:52:53.000Z,5602.9
2024-02-22T14:54:07.905Z,5602.8
2024-02-22T14:55:22.204Z,5602.5
2024-02-22T14:56:36.509Z,5602.6
2024-02-22T14:57:50.817Z,5602.4
2024-02-22T14:59:05.104Z,5601.7
2024-02-22T15:00:19.000Z,5601.2
2024-02-22T15:01:33.720Z,5600.9
2024-02-22T15:02:48.019Z,5600.4
2024-02-22T15:04:02.324Z,5600.6
2024-02-22T15:05:15.675Z,5600.1
2024-02-22T15:06:30.000Z,5599.3
2024-02-22T15:07:44.290Z,5599
2024-02-22T15:08:58.575Z,5598.7
2024-02-22T15:10:12.880Z,5598
2024-02-22T15:11:27.000Z,5597.6
2024-02-22T15:12:41.482Z,5597.2
2024-02-22T15:13:55.788Z,5596.9
2024-02-22T15:15:10.085Z,5597.3
2024-02-22T15:16:24.398Z,5597.8
2024-02-22T15:17:38.000Z,5597.7
2024-02-22T15:18:52.994Z,5597.8
2024-02-22T15:20:07.299Z,5597.5
2024-02-22T15:21:20.653Z,5597.1
2024-02-22T15:22:35.000Z,5596.8
2024-02-22T15:23:49.251Z,5596.6
2024-02-22T15:25:03.555Z,5596.4
2024-02-22T15:26:17.861Z,5596
2024-02-22T15:27:32.170Z,5595.4
2024-02-22T15:28:46.000Z,5594.5
2024-02-22T15:30:00.767Z,5593.6
2024-02-22T15:31:15.058Z,5593.8
2024-02-22T15:32:29.377Z,5594.3
2024-02-22T15:33:43.000Z,5594
2024-02-22T15:34:57.973Z,5593.9
2024-02-22T15:36:12.277Z,5594
2024-02-22T15:37:25.630Z,5594.1
2024-02-22T15:38:39.928Z,5594.5
2024-02-22T15:39:54.000Z,5594.3
2024-02-22T15:41:08.536Z,5594.2
2024-02-22T15:42:22.841Z,5594.4
2024-02-22T15:43:37.146Z,5594.5
2024-02-22T15:44:51.000Z,5594
2024-02-22T15:46:05.756Z,5593.6
2024-02-22T15:47:20.070Z,5593.3
2024-02-22T15:48:34.355Z,5593.1
2024-02-22T15:49:48.665Z,5592.6
2024-02-22T15:51:03.000Z,5592.3
2024-02-22T15:52:17.000Z,5591.9